Airfield :
LOGIN :

Register | Disclaimer

   EN    FR    IT 

 










Legend :    VFR   Marginal VFR   IFR   Intensive IFR   Very Intensive IFR
Visi :
Ceiling :
>= 8 km
>= 3000ft
5 to 8 km
1000 to 3000 ft
1500m to 5 km
500 to 1000 ft
800 to 1500m
200 to 500 ft
< 800m
< 200 ft
Symbols :   Thunderstorms  Fog  Heavy snow  Heavy precipitations  Wind > 20 kt
SIGMETs :     Misc.  Thunderstorms  Icing  Turbulence  Mountain Waves  Volcanic Ashes







- Airport Elevation : 510 ft


LJCE - Cerklje

CURRENT METAR :
  • 210530Z 25003KT 210V300 0800 FG VV002 17/17 Q1012 RMK AMB

EXPIRED METARs :
  • 210500Z 28002KT 0300 FG VV002 16/16 Q1013 RMK RED
  • 210430Z 26004KT 0600 FG VV002 16/16 Q1013 RMK RED
  • 210400Z VRB02KT 0300 FG VV002 16/16 Q1013
  • 210330Z AUTO 25003KT 6000 R09/0800N BR VV002 16/16 Q1013
  • 210300Z AUTO 26002KT 0150 R09/0600N FG VV002 17/16 Q1013

TAF TAF LJCE
Valid from the 21 at 06:00 until the 21 at 15:00 UTC


210500Z 2106/2115 25003KT 0700 FG VV002
BECMG 2106/2107 3000 BR BKN005
BECMG 2107/2108 9999 NSW FEW020
BECMG 2108/2110 26005KT FEW045 SCT075
TEMPO 2110/2115 25012G25KT 4000 TSRA FEW040CB BKN080
No reported NOTAMs for that airfield.



MET'MAP, your aeronautical weather chart ! - Copyright ORBIFLY December 2007 - Disclaimer

ORBIFLY MET'MAP TEAM :

Programming & Development : Alexandra Zaïnal
Concept & Development : Baudouin d'Aumeries
Co-Development & Prog : Marc-Olivier Méhu
Technical & hardware support : Manuel Goepfert

Contact : metmap@orbifly.com




SOURCES & CREDITS :

   NOAA